RYR9ED EGSS-EDDK
Flight info
| Callsign | RYR9ED |
|---|---|
| Flight time | 0h 51m |
| Altitude | 23000 |
| Route | CLN5S CLN M84 KONAN UL607 SPI T857 DENOV T861 ERUKI ERUK1B |
| Aircraft | B738/M-V/N |
Departure
| Time | 2026-05-06 20:14 |
|---|---|
| Airport | London Stansted Airport (EGSS) |
Arrival
| Time | 2026-05-06 21:05 |
|---|---|
| Airport | Cologne Bonn Airport (EDDK) |
| Time | Latitude | Longitude | Altitude | Speed | Heading |
|---|---|---|---|---|---|
| 2026-05-06 19:39 | 51.89222 | 0.25479 | 352 ft | 0 kts | 102° |
| 2026-05-06 20:03 | 51.89225 | 0.25457 | 354 ft | 4 kts | 112° |
| 2026-05-06 20:03 | 51.89240 | 0.25424 | 354 ft | 4 kts | 148° |
| 2026-05-06 20:04 | 51.89263 | 0.25412 | 353 ft | 4 kts | 194° |
| 2026-05-06 20:04 | 51.89275 | 0.25421 | 352 ft | 1 kts | 222° |
| 2026-05-06 20:07 | 51.89273 | 0.25417 | 352 ft | 2 kts | 222° |
| 2026-05-06 20:07 | 51.89249 | 0.25382 | 348 ft | 6 kts | 222° |
| 2026-05-06 20:07 | 51.89206 | 0.25317 | 343 ft | 12 kts | 221° |
| 2026-05-06 20:07 | 51.89122 | 0.25192 | 345 ft | 20 kts | 223° |
| 2026-05-06 20:08 | 51.89012 | 0.25026 | 346 ft | 22 kts | 223° |
| 2026-05-06 20:08 | 51.88902 | 0.24861 | 350 ft | 21 kts | 222° |
| 2026-05-06 20:08 | 51.88795 | 0.24702 | 346 ft | 21 kts | 223° |
| 2026-05-06 20:08 | 51.88691 | 0.24546 | 343 ft | 20 kts | 223° |
| 2026-05-06 20:09 | 51.88591 | 0.24395 | 344 ft | 19 kts | 223° |
| 2026-05-06 20:09 | 51.88493 | 0.24250 | 341 ft | 19 kts | 222° |
| 2026-05-06 20:09 | 51.88399 | 0.24110 | 337 ft | 18 kts | 223° |
| 2026-05-06 20:09 | 51.88309 | 0.23973 | 336 ft | 17 kts | 223° |
| 2026-05-06 20:10 | 51.88222 | 0.23841 | 336 ft | 17 kts | 223° |
| 2026-05-06 20:10 | 51.88137 | 0.23716 | 334 ft | 16 kts | 222° |
| 2026-05-06 20:10 | 51.88055 | 0.23594 | 334 ft | 16 kts | 223° |
| 2026-05-06 20:10 | 51.87971 | 0.23467 | 336 ft | 18 kts | 223° |
| 2026-05-06 20:11 | 51.87870 | 0.23314 | 334 ft | 22 kts | 223° |
| 2026-05-06 20:11 | 51.87759 | 0.23146 | 335 ft | 19 kts | 223° |
| 2026-05-06 20:11 | 51.87766 | 0.22973 | 334 ft | 18 kts | 311° |
| 2026-05-06 20:11 | 51.87732 | 0.22811 | 333 ft | 17 kts | 222° |
| 2026-05-06 20:12 | 51.87644 | 0.22681 | 337 ft | 17 kts | 223° |
| 2026-05-06 20:12 | 51.87559 | 0.22554 | 332 ft | 17 kts | 223° |
| 2026-05-06 20:12 | 51.87474 | 0.22423 | 334 ft | 17 kts | 223° |
| 2026-05-06 20:12 | 51.87405 | 0.22282 | 330 ft | 16 kts | 257° |
| 2026-05-06 20:13 | 51.87448 | 0.22127 | 329 ft | 16 kts | 312° |
| 2026-05-06 20:13 | 51.87525 | 0.22022 | 327 ft | 13 kts | 354° |
| 2026-05-06 20:13 | 51.87588 | 0.22111 | 326 ft | 12 kts | 45° |
| 2026-05-06 20:13 | 51.87658 | 0.22214 | 330 ft | 20 kts | 42° |
| 2026-05-06 20:14 | 51.87939 | 0.22636 | 333 ft | 92 kts | 43° |
| 2026-05-06 20:14 | 51.88571 | 0.23587 | 334 ft | 154 kts | 43° |
| 2026-05-06 20:14 | 51.89453 | 0.24915 | 688 ft | 178 kts | 41° |
| 2026-05-06 20:14 | 51.90318 | 0.26217 | 1902 ft | 160 kts | 43° |
| 2026-05-06 20:15 | 51.91072 | 0.27421 | 2888 ft | 148 kts | 46° |
| 2026-05-06 20:15 | 51.91687 | 0.28867 | 3296 ft | 172 kts | 73° |
| 2026-05-06 20:15 | 51.91730 | 0.30931 | 3625 ft | 200 kts | 101° |
| 2026-05-06 20:15 | 51.91225 | 0.33127 | 3995 ft | 215 kts | 114° |
| 2026-05-06 20:16 | 51.90540 | 0.35434 | 4053 ft | 243 kts | 115° |
| 2026-05-06 20:16 | 51.89777 | 0.38019 | 4004 ft | 258 kts | 114° |
| 2026-05-06 20:16 | 51.89010 | 0.40652 | 3990 ft | 259 kts | 115° |
| 2026-05-06 20:16 | 51.88240 | 0.43250 | 4341 ft | 247 kts | 115° |
| 2026-05-06 20:17 | 51.87500 | 0.45750 | 5200 ft | 247 kts | 115° |
| 2026-05-06 20:17 | 51.86758 | 0.48266 | 6036 ft | 248 kts | 115° |
| 2026-05-06 20:17 | 51.86016 | 0.50790 | 6835 ft | 249 kts | 115° |
| 2026-05-06 20:17 | 51.85272 | 0.53320 | 7626 ft | 249 kts | 115° |
| 2026-05-06 20:18 | 51.84531 | 0.55839 | 8436 ft | 248 kts | 115° |
| 2026-05-06 20:18 | 51.83790 | 0.58361 | 9188 ft | 250 kts | 114° |
| 2026-05-06 20:18 | 51.83210 | 0.60996 | 9824 ft | 256 kts | 102° |
| 2026-05-06 20:18 | 51.82945 | 0.63908 | 10406 ft | 262 kts | 92° |
| 2026-05-06 20:19 | 51.82963 | 0.66941 | 10695 ft | 281 kts | 85° |
| 2026-05-06 20:19 | 51.83122 | 0.70209 | 10938 ft | 303 kts | 84° |
| 2026-05-06 20:19 | 51.83313 | 0.73666 | 11166 ft | 323 kts | 84° |
| 2026-05-06 20:19 | 51.83480 | 0.77426 | 11322 ft | 346 kts | 85° |
| 2026-05-06 20:20 | 51.83515 | 0.81487 | 11427 ft | 366 kts | 96° |
| 2026-05-06 20:20 | 51.82756 | 0.85332 | 11838 ft | 366 kts | 119° |
| 2026-05-06 20:20 | 51.81189 | 0.88674 | 12433 ft | 373 kts | 133° |
| 2026-05-06 20:20 | 51.79391 | 0.91653 | 13003 ft | 379 kts | 135° |
| 2026-05-06 20:21 | 51.77497 | 0.94659 | 13588 ft | 382 kts | 136° |
| 2026-05-06 20:21 | 51.75593 | 0.97660 | 14134 ft | 384 kts | 136° |
| 2026-05-06 20:21 | 51.73675 | 1.00674 | 14666 ft | 385 kts | 136° |
| 2026-05-06 20:21 | 51.71754 | 1.03691 | 15204 ft | 386 kts | 136° |
| 2026-05-06 20:22 | 51.69825 | 1.06725 | 15756 ft | 388 kts | 136° |
| 2026-05-06 20:22 | 51.67877 | 1.09792 | 16305 ft | 395 kts | 136° |
| 2026-05-06 20:22 | 51.65899 | 1.12911 | 16834 ft | 401 kts | 136° |
| 2026-05-06 20:22 | 51.63896 | 1.16073 | 17367 ft | 404 kts | 136° |
| 2026-05-06 20:23 | 51.61889 | 1.19250 | 17902 ft | 406 kts | 136° |
| 2026-05-06 20:23 | 51.59816 | 1.22350 | 18410 ft | 410 kts | 144° |
| 2026-05-06 20:23 | 51.57393 | 1.24786 | 18979 ft | 411 kts | 153° |
| 2026-05-06 20:23 | 51.54870 | 1.26947 | 19599 ft | 412 kts | 153° |
| 2026-05-06 20:24 | 51.52338 | 1.29153 | 19981 ft | 416 kts | 152° |
| 2026-05-06 20:24 | 51.49814 | 1.31455 | 20003 ft | 419 kts | 151° |
| 2026-05-06 20:24 | 51.47281 | 1.33830 | 20309 ft | 424 kts | 151° |
| 2026-05-06 20:24 | 51.44783 | 1.36335 | 21039 ft | 423 kts | 145° |
| 2026-05-06 20:25 | 51.42535 | 1.39384 | 21677 ft | 426 kts | 136° |
| 2026-05-06 20:25 | 51.40598 | 1.43005 | 22200 ft | 430 kts | 129° |
| 2026-05-06 20:25 | 51.38777 | 1.46835 | 22686 ft | 434 kts | 128° |
| 2026-05-06 20:25 | 51.36958 | 1.50715 | 23009 ft | 439 kts | 128° |
| 2026-05-06 20:26 | 51.35097 | 1.54668 | 22997 ft | 448 kts | 128° |
| 2026-05-06 20:26 | 51.33200 | 1.58659 | 23003 ft | 453 kts | 128° |
| 2026-05-06 20:26 | 51.31286 | 1.62650 | 22994 ft | 451 kts | 129° |
| 2026-05-06 20:26 | 51.29377 | 1.66607 | 22990 ft | 449 kts | 129° |
| 2026-05-06 20:27 | 51.27523 | 1.70619 | 22989 ft | 449 kts | 123° |
| 2026-05-06 20:27 | 51.26090 | 1.75055 | 22999 ft | 450 kts | 112° |
| 2026-05-06 20:27 | 51.25140 | 1.79804 | 23004 ft | 450 kts | 105° |
| 2026-05-06 20:27 | 51.24328 | 1.84643 | 22993 ft | 451 kts | 105° |
| 2026-05-06 20:28 | 51.23521 | 1.89478 | 22989 ft | 451 kts | 105° |
| 2026-05-06 20:28 | 51.22705 | 1.94315 | 22991 ft | 452 kts | 105° |
| 2026-05-06 20:28 | 51.21876 | 1.99153 | 22992 ft | 452 kts | 106° |
| 2026-05-06 20:28 | 51.21038 | 2.03983 | 22992 ft | 452 kts | 106° |
| 2026-05-06 20:29 | 51.20189 | 2.08827 | 22992 ft | 453 kts | 106° |
| 2026-05-06 20:29 | 51.19338 | 2.13653 | 22991 ft | 453 kts | 106° |
| 2026-05-06 20:29 | 51.18483 | 2.18474 | 22990 ft | 453 kts | 106° |
| 2026-05-06 20:29 | 51.17624 | 2.23306 | 22991 ft | 452 kts | 107° |
| 2026-05-06 20:30 | 51.16765 | 2.28124 | 22990 ft | 452 kts | 107° |
| 2026-05-06 20:30 | 51.15041 | 2.37754 | 22978 ft | 452 kts | 107° |
| 2026-05-06 20:30 | 51.14178 | 2.42559 | 22979 ft | 451 kts | 107° |
| 2026-05-06 20:31 | 51.13312 | 2.47366 | 22988 ft | 451 kts | 107° |
| 2026-05-06 20:31 | 51.12446 | 2.52165 | 22988 ft | 451 kts | 107° |
| 2026-05-06 20:31 | 51.11577 | 2.56967 | 22988 ft | 451 kts | 107° |
| 2026-05-06 20:31 | 51.10707 | 2.61758 | 22987 ft | 451 kts | 107° |
| 2026-05-06 20:32 | 51.09835 | 2.66550 | 22990 ft | 451 kts | 107° |
| 2026-05-06 20:32 | 51.08961 | 2.71338 | 22990 ft | 451 kts | 107° |
| 2026-05-06 20:32 | 51.08086 | 2.76123 | 22991 ft | 451 kts | 107° |
| 2026-05-06 20:32 | 51.07220 | 2.80845 | 22989 ft | 451 kts | 107° |
| 2026-05-06 20:33 | 51.06338 | 2.85640 | 22992 ft | 451 kts | 107° |
| 2026-05-06 20:33 | 51.05456 | 2.90426 | 22990 ft | 451 kts | 107° |
| 2026-05-06 20:33 | 51.04571 | 2.95214 | 22984 ft | 452 kts | 107° |
| 2026-05-06 20:33 | 51.03683 | 3.00003 | 22983 ft | 452 kts | 107° |
| 2026-05-06 20:34 | 51.02795 | 3.04787 | 22981 ft | 452 kts | 107° |
| 2026-05-06 20:34 | 51.01979 | 3.09609 | 22974 ft | 452 kts | 103° |
| 2026-05-06 20:34 | 51.01385 | 3.14507 | 22983 ft | 452 kts | 101° |
| 2026-05-06 20:34 | 51.00863 | 3.19440 | 22968 ft | 453 kts | 100° |
| 2026-05-06 20:35 | 51.00361 | 3.24373 | 22967 ft | 453 kts | 100° |
| 2026-05-06 20:35 | 50.99857 | 3.29305 | 22961 ft | 452 kts | 100° |
| 2026-05-06 20:35 | 50.99339 | 3.34233 | 22961 ft | 452 kts | 100° |
| 2026-05-06 20:35 | 50.98808 | 3.39153 | 22958 ft | 452 kts | 100° |
| 2026-05-06 20:36 | 50.98266 | 3.44065 | 22958 ft | 452 kts | 101° |
| 2026-05-06 20:36 | 50.97717 | 3.48975 | 22960 ft | 452 kts | 101° |
| 2026-05-06 20:36 | 50.97163 | 3.53879 | 22953 ft | 451 kts | 101° |
| 2026-05-06 20:36 | 50.96607 | 3.58777 | 22953 ft | 451 kts | 101° |
| 2026-05-06 20:37 | 50.96048 | 3.63673 | 22948 ft | 451 kts | 101° |
| 2026-05-06 20:37 | 50.95488 | 3.68568 | 22951 ft | 451 kts | 101° |
| 2026-05-06 20:37 | 50.94926 | 3.73457 | 22959 ft | 451 kts | 101° |
| 2026-05-06 20:37 | 50.94363 | 3.78341 | 22948 ft | 450 kts | 101° |
| 2026-05-06 20:38 | 50.93798 | 3.83232 | 22957 ft | 450 kts | 101° |
| 2026-05-06 20:38 | 50.93232 | 3.88108 | 22951 ft | 450 kts | 101° |
| 2026-05-06 20:38 | 50.92663 | 3.92992 | 22960 ft | 450 kts | 101° |
| 2026-05-06 20:38 | 50.92092 | 3.97869 | 22959 ft | 450 kts | 101° |
| 2026-05-06 20:39 | 50.91520 | 4.02743 | 22957 ft | 450 kts | 101° |
| 2026-05-06 20:39 | 50.90946 | 4.07619 | 22960 ft | 450 kts | 101° |
| 2026-05-06 20:39 | 50.90368 | 4.12500 | 22957 ft | 450 kts | 101° |
| 2026-05-06 20:39 | 50.89789 | 4.17375 | 22969 ft | 450 kts | 101° |
| 2026-05-06 20:40 | 50.89209 | 4.22242 | 22964 ft | 450 kts | 101° |
| 2026-05-06 20:40 | 50.88626 | 4.27118 | 22957 ft | 450 kts | 101° |
| 2026-05-06 20:40 | 50.88041 | 4.31989 | 22971 ft | 450 kts | 101° |
| 2026-05-06 20:40 | 50.87455 | 4.36853 | 22962 ft | 450 kts | 101° |
| 2026-05-06 20:41 | 50.86867 | 4.41717 | 22978 ft | 450 kts | 101° |
| 2026-05-06 20:41 | 50.86285 | 4.46507 | 22966 ft | 450 kts | 101° |
| 2026-05-06 20:41 | 50.85685 | 4.51431 | 22974 ft | 449 kts | 101° |
| 2026-05-06 20:41 | 50.85091 | 4.56286 | 22965 ft | 449 kts | 101° |
| 2026-05-06 20:42 | 50.84496 | 4.61133 | 22962 ft | 449 kts | 101° |
| 2026-05-06 20:42 | 50.83899 | 4.65979 | 22967 ft | 449 kts | 101° |
| 2026-05-06 20:42 | 50.83300 | 4.70823 | 22961 ft | 449 kts | 101° |
| 2026-05-06 20:42 | 50.82699 | 4.75664 | 22957 ft | 448 kts | 101° |
| 2026-05-06 20:43 | 50.82105 | 4.80435 | 22956 ft | 448 kts | 101° |
| 2026-05-06 20:43 | 50.81494 | 4.85330 | 22955 ft | 448 kts | 101° |
| 2026-05-06 20:43 | 50.80888 | 4.90158 | 22951 ft | 448 kts | 101° |
| 2026-05-06 20:43 | 50.80280 | 4.94988 | 22946 ft | 447 kts | 101° |
| 2026-05-06 20:44 | 50.79679 | 4.99746 | 22947 ft | 447 kts | 101° |
| 2026-05-06 20:44 | 50.79069 | 5.04561 | 22939 ft | 447 kts | 101° |
| 2026-05-06 20:44 | 50.78457 | 5.09373 | 22943 ft | 447 kts | 101° |
| 2026-05-06 20:44 | 50.77842 | 5.14186 | 22935 ft | 446 kts | 101° |
| 2026-05-06 20:45 | 50.77227 | 5.18991 | 22939 ft | 446 kts | 101° |
| 2026-05-06 20:45 | 50.76610 | 5.23789 | 22940 ft | 446 kts | 101° |
| 2026-05-06 20:45 | 50.75992 | 5.28585 | 22941 ft | 446 kts | 102° |
| 2026-05-06 20:45 | 50.75573 | 5.31824 | 22940 ft | 446 kts | 102° |
| 2026-05-06 20:46 | 50.74951 | 5.36616 | 22936 ft | 445 kts | 102° |
| 2026-05-06 20:46 | 50.74330 | 5.41391 | 22921 ft | 440 kts | 102° |
| 2026-05-06 20:46 | 50.73721 | 5.46054 | 22926 ft | 430 kts | 102° |
| 2026-05-06 20:46 | 50.73117 | 5.50666 | 22747 ft | 428 kts | 102° |
| 2026-05-06 20:47 | 50.72515 | 5.55239 | 22473 ft | 423 kts | 102° |
| 2026-05-06 20:47 | 50.71917 | 5.59774 | 22206 ft | 421 kts | 102° |
| 2026-05-06 20:47 | 50.71319 | 5.64296 | 21940 ft | 421 kts | 102° |
| 2026-05-06 20:47 | 50.70720 | 5.68805 | 21675 ft | 419 kts | 102° |
| 2026-05-06 20:48 | 50.70124 | 5.73286 | 21164 ft | 416 kts | 102° |
| 2026-05-06 20:48 | 50.69531 | 5.77723 | 20644 ft | 411 kts | 102° |
| 2026-05-06 20:48 | 50.68945 | 5.82102 | 20087 ft | 407 kts | 102° |
| 2026-05-06 20:48 | 50.68368 | 5.86397 | 19554 ft | 404 kts | 102° |
| 2026-05-06 20:49 | 50.67779 | 5.90770 | 19009 ft | 401 kts | 102° |
| 2026-05-06 20:49 | 50.67199 | 5.95060 | 18474 ft | 399 kts | 102° |
| 2026-05-06 20:49 | 50.66622 | 5.99313 | 17894 ft | 396 kts | 102° |
| 2026-05-06 20:49 | 50.66054 | 6.03495 | 17312 ft | 394 kts | 102° |
| 2026-05-06 20:50 | 50.65482 | 6.07692 | 16756 ft | 391 kts | 102° |
| 2026-05-06 20:50 | 50.64913 | 6.11867 | 16208 ft | 388 kts | 102° |
| 2026-05-06 20:50 | 50.64346 | 6.15997 | 15688 ft | 385 kts | 101° |
| 2026-05-06 20:50 | 50.63786 | 6.20103 | 15158 ft | 381 kts | 100° |
| 2026-05-06 20:51 | 50.63459 | 6.24228 | 14665 ft | 378 kts | 93° |
| 2026-05-06 20:51 | 50.63267 | 6.28346 | 14156 ft | 376 kts | 93° |
| 2026-05-06 20:51 | 50.63067 | 6.32434 | 13651 ft | 373 kts | 93° |
| 2026-05-06 20:51 | 50.62858 | 6.36496 | 13083 ft | 371 kts | 93° |
| 2026-05-06 20:52 | 50.62650 | 6.40528 | 12557 ft | 368 kts | 93° |
| 2026-05-06 20:52 | 50.62443 | 6.44522 | 12048 ft | 365 kts | 93° |
| 2026-05-06 20:52 | 50.62235 | 6.48484 | 11543 ft | 362 kts | 93° |
| 2026-05-06 20:52 | 50.62028 | 6.52415 | 11040 ft | 359 kts | 93° |
| 2026-05-06 20:53 | 50.61823 | 6.56298 | 10749 ft | 350 kts | 93° |
| 2026-05-06 20:53 | 50.61622 | 6.60050 | 10600 ft | 338 kts | 93° |
| 2026-05-06 20:53 | 50.61429 | 6.63669 | 10468 ft | 326 kts | 93° |
| 2026-05-06 20:53 | 50.61241 | 6.67170 | 10337 ft | 316 kts | 93° |
| 2026-05-06 20:54 | 50.61057 | 6.70558 | 10208 ft | 306 kts | 92° |
| 2026-05-06 20:54 | 50.60896 | 6.73495 | 10092 ft | 297 kts | 92° |
| 2026-05-06 20:54 | 50.60817 | 6.76729 | 9962 ft | 287 kts | 84° |
| 2026-05-06 20:54 | 50.61025 | 6.79804 | 9771 ft | 280 kts | 79° |
| 2026-05-06 20:55 | 50.61301 | 6.82834 | 9473 ft | 278 kts | 79° |
| 2026-05-06 20:55 | 50.61573 | 6.85836 | 9183 ft | 277 kts | 79° |
| 2026-05-06 20:55 | 50.61828 | 6.88830 | 8894 ft | 275 kts | 80° |
| 2026-05-06 20:55 | 50.62066 | 6.91810 | 8605 ft | 273 kts | 80° |
| 2026-05-06 20:56 | 50.62295 | 6.94771 | 8315 ft | 272 kts | 80° |
| 2026-05-06 20:56 | 50.62519 | 6.97720 | 8032 ft | 271 kts | 80° |
| 2026-05-06 20:56 | 50.62741 | 7.00659 | 7725 ft | 270 kts | 80° |
| 2026-05-06 20:56 | 50.62960 | 7.03602 | 7396 ft | 271 kts | 80° |
| 2026-05-06 20:57 | 50.63177 | 7.06545 | 7077 ft | 271 kts | 80° |
| 2026-05-06 20:57 | 50.63393 | 7.09492 | 6773 ft | 270 kts | 81° |
| 2026-05-06 20:57 | 50.63607 | 7.12424 | 6502 ft | 269 kts | 81° |
| 2026-05-06 20:57 | 50.63819 | 7.15338 | 6266 ft | 266 kts | 81° |
| 2026-05-06 20:58 | 50.64029 | 7.18214 | 5997 ft | 264 kts | 81° |
| 2026-05-06 20:58 | 50.64236 | 7.21078 | 5728 ft | 262 kts | 81° |
| 2026-05-06 20:58 | 50.64438 | 7.23891 | 5447 ft | 254 kts | 81° |
| 2026-05-06 20:58 | 50.64632 | 7.26609 | 5191 ft | 245 kts | 81° |
| 2026-05-06 20:59 | 50.65104 | 7.29098 | 4938 ft | 232 kts | 56° |
| 2026-05-06 20:59 | 50.66071 | 7.31050 | 4720 ft | 222 kts | 45° |
| 2026-05-06 20:59 | 50.67103 | 7.32806 | 4491 ft | 215 kts | 44° |
| 2026-05-06 20:59 | 50.68120 | 7.34524 | 4273 ft | 213 kts | 44° |
| 2026-05-06 21:00 | 50.69147 | 7.36173 | 4076 ft | 207 kts | 33° |
| 2026-05-06 21:00 | 50.70442 | 7.36796 | 3856 ft | 192 kts | 351° |
| 2026-05-06 21:00 | 50.71602 | 7.35939 | 3690 ft | 181 kts | 326° |
| 2026-05-06 21:00 | 50.72620 | 7.34825 | 3488 ft | 176 kts | 326° |
| 2026-05-06 21:01 | 50.73598 | 7.33719 | 3295 ft | 169 kts | 323° |
| 2026-05-06 21:01 | 50.74496 | 7.32554 | 3135 ft | 166 kts | 320° |
| 2026-05-06 21:01 | 50.75369 | 7.31327 | 3061 ft | 172 kts | 319° |
| 2026-05-06 21:01 | 50.76251 | 7.30055 | 2869 ft | 171 kts | 319° |
| 2026-05-06 21:02 | 50.77116 | 7.28798 | 2655 ft | 167 kts | 319° |
| 2026-05-06 21:02 | 50.77972 | 7.27551 | 2422 ft | 163 kts | 319° |
| 2026-05-06 21:02 | 50.78766 | 7.26393 | 2201 ft | 152 kts | 319° |
| 2026-05-06 21:02 | 50.79524 | 7.25289 | 1990 ft | 141 kts | 320° |
| 2026-05-06 21:03 | 50.80227 | 7.24267 | 1829 ft | 137 kts | 320° |
| 2026-05-06 21:03 | 50.80922 | 7.23256 | 1649 ft | 138 kts | 319° |
| 2026-05-06 21:03 | 50.81640 | 7.22214 | 1432 ft | 142 kts | 318° |
| 2026-05-06 21:03 | 50.82374 | 7.21165 | 1266 ft | 143 kts | 319° |
| 2026-05-06 21:04 | 50.83102 | 7.20076 | 1155 ft | 145 kts | 317° |
| 2026-05-06 21:04 | 50.83855 | 7.18970 | 845 ft | 149 kts | 319° |
| 2026-05-06 21:04 | 50.84605 | 7.17903 | 584 ft | 143 kts | 317° |
| 2026-05-06 21:04 | 50.85329 | 7.16836 | 377 ft | 140 kts | 318° |
| 2026-05-06 21:05 | 50.86027 | 7.15828 | 298 ft | 129 kts | 319° |
| 2026-05-06 21:05 | 50.86549 | 7.15078 | 263 ft | 70 kts | 317° |
| 2026-05-06 21:05 | 50.86828 | 7.14678 | 256 ft | 51 kts | 317° |
| 2026-05-06 21:05 | 50.87073 | 7.14320 | 256 ft | 45 kts | 317° |
| 2026-05-06 21:06 | 50.87273 | 7.13973 | 252 ft | 41 kts | 295° |
| 2026-05-06 21:06 | 50.87333 | 7.13582 | 240 ft | 28 kts | 280° |
| 2026-05-06 21:06 | 50.87407 | 7.13379 | 234 ft | 21 kts | 317° |
| 2026-05-06 21:06 | 50.87514 | 7.13223 | 231 ft | 20 kts | 317° |
| 2026-05-06 21:07 | 50.87617 | 7.13073 | 230 ft | 20 kts | 317° |
| 2026-05-06 21:07 | 50.87717 | 7.12928 | 231 ft | 19 kts | 317° |
| 2026-05-06 21:07 | 50.87788 | 7.12770 | 229 ft | 18 kts | 265° |
| 2026-05-06 21:07 | 50.87760 | 7.12584 | 230 ft | 17 kts | 247° |
| 2026-05-06 21:08 | 50.87663 | 7.12496 | 230 ft | 16 kts | 197° |
| 2026-05-06 21:08 | 50.87558 | 7.12433 | 232 ft | 16 kts | 226° |
| 2026-05-06 21:08 | 50.87570 | 7.12285 | 229 ft | 15 kts | 304° |
| 2026-05-06 21:08 | 50.87609 | 7.12257 | 229 ft | 6 kts | 20° |
| 2026-05-06 21:09 | 50.87637 | 7.12290 | 229 ft | 0 kts | 31° |
| 2026-05-06 21:09 | 50.87647 | 7.12298 | 231 ft | 0 kts | 28° |